createdAt,value
2022-11-21T00:01:39.168Z,18.67
2022-11-21T00:04:07.573Z,15.07
2022-11-21T00:06:38.567Z,16.65
2022-11-21T00:09:06.266Z,23.90
2022-11-21T00:11:34.392Z,12.50
2022-11-21T00:14:02.622Z,14.30
2022-11-21T00:16:30.397Z,17.60
2022-11-21T00:19:03.885Z,13.27
2022-11-21T00:21:34.124Z,11.68
2022-11-21T00:24:02.235Z,13.77
2022-11-21T00:26:33.698Z,12.48
2022-11-21T00:29:02.323Z,16.52
2022-11-21T00:31:30.252Z,25.67
2022-11-21T00:34:01.256Z,18.10
2022-11-21T00:36:29.249Z,11.43
2022-11-21T00:38:57.134Z,12.70
2022-11-21T00:41:24.985Z,13.63
2022-11-21T00:43:56.105Z,10.02
2022-11-21T00:46:23.841Z,18.77
2022-11-21T00:48:51.913Z,20.90
2022-11-21T00:51:19.845Z,19.10
2022-11-21T00:53:48.059Z,13.10
2022-11-21T00:56:15.747Z,13.65
2022-11-21T00:58:43.341Z,12.73
2022-11-21T01:01:14.476Z,18.85
2022-11-21T01:03:42.413Z,19.23
2022-11-21T01:06:13.767Z,11.68
2022-11-21T01:08:44.717Z,13.85
2022-11-21T01:11:17.083Z,13.90
2022-11-21T01:13:45.463Z,13.88
2022-11-21T01:16:19.325Z,13.55
2022-11-21T01:18:47.898Z,17.70
2022-11-21T01:21:17.819Z,16.55
2022-11-21T01:23:45.934Z,10.70
2022-11-21T01:26:19.672Z,10.25
2022-11-21T01:28:47.793Z,16.70
2022-11-21T01:31:21.759Z,16.95
2022-11-21T01:33:49.938Z,11.70
2022-11-21T01:36:17.734Z,18.02
2022-11-21T01:38:47.957Z,16.75
2022-11-21T01:41:22.873Z,9.40
2022-11-21T01:43:51.385Z,13.18
2022-11-21T01:46:23.084Z,10.52
2022-11-21T01:49:04.519Z,12.98
2022-11-21T01:51:37.373Z,13.15
2022-11-21T01:54:13.657Z,12.90
2022-11-21T01:56:43.984Z,13.40
2022-11-21T01:59:18.263Z,10.73
2022-11-21T02:01:48.626Z,22.25
2022-11-21T02:04:16.708Z,14.80
2022-11-21T02:06:45.092Z,17.90
2022-11-21T02:09:12.798Z,19.17
2022-11-21T02:11:48.096Z,19.02
2022-11-21T02:14:16.071Z,19.23
2022-11-21T02:16:44.407Z,17.38
2022-11-21T02:19:20.219Z,12.98
2022-11-21T02:22:17.015Z,19.77
2022-11-21T02:25:19.201Z,18.23
2022-11-21T02:27:50.358Z,11.35
2022-11-21T02:30:21.283Z,9.07
2022-11-21T02:32:49.435Z,16.13
2022-11-21T02:35:19.095Z,20.27
2022-11-21T02:37:51.143Z,17.67
2022-11-21T02:40:26.967Z,12.82
2022-11-21T02:43:13.593Z,15.82
2022-11-21T02:45:43.697Z,19.42
2022-11-21T02:48:15.249Z,20.38
2022-11-21T02:50:45.252Z,17.90
2022-11-21T02:53:16.358Z,8.65
2022-11-21T02:55:45.369Z,12.80
2022-11-21T02:58:13.582Z,20.92
2022-11-21T03:00:43.102Z,17.88
2022-11-21T03:03:10.969Z,12.65
2022-11-21T03:05:39.879Z,16.58
2022-11-21T03:08:10.730Z,15.52
2022-11-21T03:10:38.814Z,15.13
2022-11-21T03:13:06.938Z,17.23
2022-11-21T03:15:38.373Z,15.73
2022-11-21T03:18:07.327Z,20.48
2022-11-21T03:20:35.385Z,13.32
2022-11-21T03:23:03.689Z,12.05
2022-11-21T03:25:31.773Z,16.30
2022-11-21T03:28:00.029Z,18.58
2022-11-21T03:30:28.695Z,15.88
2022-11-21T03:33:01.251Z,15.40
2022-11-21T03:35:30.232Z,14.07
2022-11-21T03:37:58.306Z,16.73
2022-11-21T03:40:27.097Z,22.50
2022-11-21T03:42:54.773Z,15.25
2022-11-21T03:45:23.447Z,17.70
2022-11-21T03:47:51.674Z,20.85
2022-11-21T03:50:21.305Z,12.45
2022-11-21T03:52:49.144Z,23.95
2022-11-21T03:55:17.226Z,16.60
2022-11-21T03:57:44.934Z,22.85
2022-11-21T04:00:13.802Z,8.73
2022-11-21T04:02:41.617Z,18.60
2022-11-21T04:05:09.635Z,11.70
2022-11-21T04:07:37.462Z,18.13
2022-11-21T04:10:05.648Z,13.90
2022-11-21T04:12:33.412Z,11.18
2022-11-21T04:15:01.180Z,12.70
2022-11-21T04:17:29.096Z,21.67
2022-11-21T04:19:56.776Z,15.00
2022-11-21T04:22:24.627Z,11.98
2022-11-21T04:24:52.393Z,18.55
2022-11-21T04:27:20.014Z,15.43
2022-11-21T04:29:47.890Z,12.88
2022-11-21T04:32:16.965Z,15.77
2022-11-21T04:34:44.622Z,17.55
2022-11-21T04:37:12.315Z,15.23
2022-11-21T04:39:39.983Z,14.63
2022-11-21T04:42:07.780Z,13.60
2022-11-21T04:44:36.639Z,14.13
2022-11-21T04:47:05.701Z,20.15
2022-11-21T04:49:33.853Z,17.17
2022-11-21T04:52:01.880Z,15.80
2022-11-21T04:54:29.984Z,16.35
2022-11-21T04:56:57.911Z,11.82
2022-11-21T04:59:25.755Z,11.55
2022-11-21T05:01:53.511Z,19.95
2022-11-21T05:04:21.432Z,12.38
2022-11-21T05:06:49.170Z,18.15
2022-11-21T05:09:16.841Z,16.52
2022-11-21T05:12:02.974Z,12.45
2022-11-21T05:14:30.829Z,18.80
2022-11-21T05:16:58.472Z,16.38
2022-11-21T05:19:26.237Z,16.20
2022-11-21T05:21:53.995Z,16.70
2022-11-21T05:24:21.735Z,12.35
2022-11-21T05:26:49.357Z,20.38
2022-11-21T05:29:18.181Z,25.42
2022-11-21T05:31:45.883Z,16.15
2022-11-21T05:34:13.813Z,12.85
2022-11-21T05:36:41.556Z,21.25
2022-11-21T05:39:09.428Z,22.90
2022-11-21T05:41:37.347Z,15.02
2022-11-21T05:44:05.205Z,19.55
2022-11-21T05:46:34.157Z,20.90
2022-11-21T05:49:01.940Z,16.15
2022-11-21T05:51:29.783Z,16.45
2022-11-21T05:53:57.621Z,18.60
2022-11-21T05:56:28.728Z,13.45
2022-11-21T05:58:57.223Z,19.77
2022-11-21T06:01:44.756Z,22.50
2022-11-21T06:04:12.609Z,20.58
2022-11-21T06:06:41.771Z,17.17
2022-11-21T06:09:09.598Z,29.30
2022-11-21T06:11:37.404Z,19.73
2022-11-21T06:14:05.309Z,19.05
2022-11-21T06:16:34.523Z,17.35
2022-11-21T06:19:05.160Z,22.40
2022-11-21T06:21:37.387Z,23.23
2022-11-21T06:24:05.786Z,14.63
2022-11-21T06:26:33.610Z,17.70
2022-11-21T06:29:01.496Z,23.63
2022-11-21T06:31:30.493Z,25.70
2022-11-21T06:34:01.417Z,14.23
2022-11-21T06:36:29.206Z,18.70
2022-11-21T06:38:56.986Z,28.08
2022-11-21T06:41:26.957Z,16.67
2022-11-21T06:43:54.857Z,22.70
2022-11-21T06:46:22.643Z,27.33
2022-11-21T06:48:50.571Z,18.67
2022-11-21T06:51:22.036Z,26.17
2022-11-21T06:53:59.144Z,22.52
2022-11-21T06:56:31.486Z,23.38
2022-11-21T06:58:59.960Z,28.63
2022-11-21T07:01:28.053Z,19.90
2022-11-21T07:03:56.045Z,22.70
2022-11-21T07:06:30.593Z,22.25
2022-11-21T07:09:32.291Z,22.33
2022-11-21T07:12:19.717Z,19.48
2022-11-21T07:14:47.922Z,20.30
2022-11-21T07:17:19.107Z,22.90
2022-11-21T07:19:49.270Z,18.38
2022-11-21T07:22:17.459Z,20.02
2022-11-21T07:24:48.103Z,20.40
2022-11-21T07:27:16.002Z,21.08
2022-11-21T07:29:43.954Z,16.73
2022-11-21T07:32:12.292Z,14.98
2022-11-21T07:34:42.787Z,15.38
2022-11-21T07:37:10.485Z,16.58
2022-11-21T07:39:38.261Z,19.42
2022-11-21T07:42:06.567Z,13.57
2022-11-21T07:44:34.404Z,17.73
2022-11-21T07:47:02.830Z,17.55
2022-11-21T07:49:31.144Z,21.05
2022-11-21T07:52:02.144Z,16.17
2022-11-21T07:56:57.642Z,15.88
2022-11-21T07:59:26.942Z,19.65
2022-11-21T08:01:55.546Z,13.53
2022-11-21T08:04:29.525Z,12.18
2022-11-21T08:06:57.712Z,17.48
2022-11-21T08:09:29.534Z,17.27
2022-11-21T08:11:57.673Z,15.23
2022-11-21T08:14:31.416Z,19.65
2022-11-21T08:16:59.217Z,20.05
2022-11-21T08:19:27.217Z,12.80
2022-11-21T08:21:55.161Z,23.25
2022-11-21T08:24:22.860Z,18.92
2022-11-21T08:26:50.662Z,17.77
2022-11-21T08:29:18.275Z,19.17
2022-11-21T08:31:47.426Z,19.13
2022-11-21T08:34:15.161Z,21.42
2022-11-21T08:36:42.746Z,15.45
2022-11-21T08:39:10.360Z,18.15
2022-11-21T08:41:56.586Z,17.17
2022-11-21T08:44:24.886Z,20.40
2022-11-21T08:46:52.555Z,19.40
2022-11-21T08:49:20.216Z,15.27
2022-11-21T08:51:51.321Z,9.52
2022-11-21T08:54:25.621Z,17.25
2022-11-21T08:56:53.817Z,10.35
2022-11-21T08:59:21.413Z,17.55
2022-11-21T09:01:49.202Z,15.55
2022-11-21T09:04:16.934Z,20.08
2022-11-21T09:06:44.535Z,21.98
2022-11-21T09:09:12.280Z,12.57
2022-11-21T09:11:39.858Z,16.83
2022-11-21T09:14:26.010Z,13.80
2022-11-21T09:17:12.311Z,19.65
2022-11-21T09:19:43.620Z,20.17
2022-11-21T09:22:11.226Z,18.13
2022-11-21T09:24:38.905Z,15.35
2022-11-21T09:27:07.073Z,15.38
2022-11-21T09:29:34.644Z,22.70
2022-11-21T09:32:02.352Z,13.35
2022-11-21T09:34:31.701Z,13.57
2022-11-21T09:36:59.464Z,20.40
2022-11-21T09:39:27.603Z,22.45
2022-11-21T09:41:58.398Z,15.35
2022-11-21T09:47:19.487Z,21.77
2022-11-21T09:49:55.462Z,21.88
2022-11-21T09:52:38.199Z,22.83
2022-11-21T09:55:21.413Z,23.15
2022-11-21T09:57:52.997Z,19.73
2022-11-21T10:00:23.679Z,21.55
2022-11-21T10:05:49.819Z,19.63
2022-11-21T10:08:34.779Z,17.23
2022-11-21T10:11:20.486Z,22.25
2022-11-21T10:14:06.496Z,20.15
2022-11-21T10:16:43.288Z,18.08
2022-11-21T10:19:37.169Z,25.58
2022-11-21T10:22:34.173Z,18.95
2022-11-21T10:25:14.016Z,25.35
2022-11-21T10:27:54.311Z,22.70
2022-11-21T10:30:22.603Z,21.58
2022-11-21T10:33:04.739Z,27.58
2022-11-21T10:36:10.028Z,22.55
2022-11-21T10:38:40.561Z,29.23
2022-11-21T10:41:15.961Z,24.73
2022-11-21T10:44:15.711Z,16.00
2022-11-21T10:46:59.146Z,27.27
2022-11-21T10:49:35.122Z,25.25
2022-11-21T10:52:13.854Z,21.65
2022-11-21T10:55:07.750Z,30.90
2022-11-21T10:57:46.067Z,23.02
2022-11-21T11:00:13.710Z,20.35
2022-11-21T11:02:57.567Z,21.88
2022-11-21T11:05:29.303Z,29.90
2022-11-21T11:08:07.954Z,33.83
2022-11-21T11:10:54.057Z,19.90
2022-11-21T11:13:50.379Z,20.15
2022-11-21T11:16:24.546Z,18.92
2022-11-21T11:19:31.605Z,19.42
2022-11-21T11:22:01.865Z,19.85
2022-11-21T11:24:29.602Z,22.02
2022-11-21T11:27:05.445Z,24.13
2022-11-21T11:29:57.439Z,19.70
2022-11-21T11:32:25.705Z,27.70
2022-11-21T11:35:12.960Z,24.20
2022-11-21T11:37:42.471Z,27.45
2022-11-21T11:40:38.326Z,25.13
2022-11-21T11:43:24.366Z,18.17
2022-11-21T11:46:25.053Z,20.15
2022-11-21T11:51:56.678Z,22.13
2022-11-21T11:54:31.724Z,28.45
2022-11-21T11:56:59.967Z,22.75
2022-11-21T11:59:54.197Z,29.45
2022-11-21T12:02:29.382Z,22.08
2022-11-21T12:05:11.433Z,26.08
2022-11-21T12:11:16.965Z,18.42
2022-11-21T12:13:49.694Z,23.77
2022-11-21T12:18:54.929Z,22.13
2022-11-21T12:21:23.584Z,24.25
2022-11-21T12:23:52.717Z,21.58
2022-11-21T12:26:20.346Z,29.15
2022-11-21T12:29:20.662Z,28.42
2022-11-21T12:32:10.083Z,29.17
2022-11-21T12:34:43.583Z,20.08
2022-11-21T12:37:27.627Z,28.33
2022-11-21T12:40:26.548Z,18.65
2022-11-21T12:43:11.601Z,23.67
2022-11-21T12:45:47.221Z,15.10
2022-11-21T12:49:04.370Z,22.10
2022-11-21T12:52:13.205Z,21.02
2022-11-21T12:54:47.092Z,16.15
2022-11-21T12:57:26.906Z,15.25
2022-11-21T13:00:04.139Z,17.83
2022-11-21T13:03:09.564Z,13.85
2022-11-21T13:05:41.273Z,17.02
2022-11-21T13:08:26.740Z,20.67
2022-11-21T13:11:35.242Z,14.25
2022-11-21T13:14:13.917Z,27.17
2022-11-21T13:16:48.348Z,16.95
2022-11-21T13:19:24.895Z,16.60
2022-11-21T13:21:56.997Z,10.02
2022-11-21T13:24:47.250Z,15.68
2022-11-21T13:27:33.396Z,16.95
2022-11-21T13:30:07.104Z,16.30
2022-11-21T13:32:42.089Z,9.77
2022-11-21T13:35:38.948Z,11.70
2022-11-21T13:38:13.163Z,7.68
2022-11-21T13:41:05.252Z,14.52
2022-11-21T13:43:34.567Z,10.80
2022-11-21T13:46:02.842Z,8.88
2022-11-21T13:49:00.960Z,7.78
2022-11-21T13:51:50.353Z,8.00
2022-11-21T13:54:26.604Z,9.75
2022-11-21T13:57:09.482Z,10.52
2022-11-21T14:00:19.885Z,13.73
2022-11-21T14:05:46.155Z,7.75
2022-11-21T14:08:22.315Z,9.85
2022-11-21T14:10:54.652Z,13.30
2022-11-21T14:13:25.237Z,7.30
2022-11-21T14:16:17.528Z,8.48
2022-11-21T14:18:47.276Z,14.80
2022-11-21T14:21:35.773Z,11.05
2022-11-21T14:24:15.618Z,10.23
2022-11-21T14:26:49.566Z,7.20
2022-11-21T14:29:29.291Z,8.52
2022-11-21T14:31:57.260Z,7.03
2022-11-21T14:34:29.894Z,8.77
2022-11-21T14:37:00.567Z,12.82
2022-11-21T14:39:42.193Z,8.52
2022-11-21T14:42:15.306Z,11.82
2022-11-21T14:44:43.515Z,10.95
2022-11-21T14:47:25.792Z,14.48
2022-11-21T14:49:56.974Z,3.60
2022-11-21T14:52:31.542Z,16.83
2022-11-21T14:55:29.652Z,6.18
2022-11-21T14:57:48.622Z,11.02
2022-11-21T15:00:58.125Z,9.57
2022-11-21T15:03:22.183Z,6.20
2022-11-21T15:06:05.027Z,6.28
2022-11-21T15:11:42.962Z,5.68
2022-11-21T15:14:29.877Z,4.68
2022-11-21T15:16:58.984Z,9.57
2022-11-21T15:19:30.273Z,11.50
2022-11-21T15:22:00.421Z,7.53
2022-11-21T15:24:37.476Z,8.65
2022-11-21T15:27:27.096Z,3.03
2022-11-21T15:30:10.286Z,6.05
2022-11-21T15:33:00.195Z,7.00
2022-11-21T15:35:53.259Z,8.27
2022-11-21T15:38:49.381Z,8.30
2022-11-21T15:41:16.951Z,3.38
2022-11-21T15:43:56.662Z,8.80
2022-11-21T15:46:28.197Z,5.82
2022-11-21T15:48:57.648Z,9.75
2022-11-21T15:52:05.547Z,4.82
2022-11-21T15:54:27.492Z,6.20
2022-11-21T15:56:55.637Z,8.95
2022-11-21T15:59:23.256Z,7.32
2022-11-21T16:01:50.871Z,3.80
2022-11-21T16:04:23.865Z,5.50
2022-11-21T16:06:53.800Z,2.85
2022-11-21T16:09:21.471Z,2.88
2022-11-21T16:11:49.132Z,6.65
2022-11-21T16:14:18.541Z,5.53
2022-11-21T16:16:47.831Z,7.65
2022-11-21T16:19:16.101Z,4.85
2022-11-21T16:21:44.115Z,7.47
2022-11-21T16:24:12.853Z,5.80
2022-11-21T16:26:40.494Z,8.75
2022-11-21T16:29:10.632Z,5.85
2022-11-21T16:31:38.541Z,8.15
2022-11-21T16:34:06.228Z,9.65
2022-11-21T16:36:36.375Z,4.75
2022-11-21T16:39:09.954Z,8.05
2022-11-21T16:41:39.447Z,9.18
2022-11-21T16:44:16.426Z,9.75
2022-11-21T16:46:49.236Z,6.78
2022-11-21T16:49:20.302Z,10.85
2022-11-21T16:51:48.058Z,8.88
2022-11-21T16:54:15.835Z,9.70
2022-11-21T16:56:47.613Z,12.25
2022-11-21T16:59:15.402Z,2.60
2022-11-21T17:01:43.636Z,3.17
2022-11-21T17:04:17.628Z,4.15
2022-11-21T17:06:49.074Z,4.50
2022-11-21T17:09:17.424Z,6.85
2022-11-21T17:11:46.060Z,3.50
2022-11-21T17:14:13.813Z,4.03
2022-11-21T17:16:42.115Z,1.70
2022-11-21T17:19:16.334Z,2.80
2022-11-21T17:21:59.870Z,2.08
2022-11-21T17:24:29.340Z,2.55
2022-11-21T17:27:02.960Z,2.83
2022-11-21T17:29:32.038Z,2.25
2022-11-21T17:31:59.932Z,2.65
2022-11-21T17:34:33.189Z,3.25
2022-11-21T17:37:01.181Z,3.22
2022-11-21T17:39:30.585Z,2.80
2022-11-21T17:42:02.349Z,1.20
2022-11-21T17:44:30.671Z,1.85
2022-11-21T17:47:02.043Z,2.92
2022-11-21T17:49:37.094Z,5.85
2022-11-21T17:52:08.231Z,3.20
2022-11-21T17:54:36.315Z,1.27
2022-11-21T17:57:04.466Z,5.03
2022-11-21T17:59:33.660Z,7.78
2022-11-21T18:02:02.137Z,2.72
2022-11-21T18:04:30.394Z,5.80
2022-11-21T18:06:58.710Z,6.75
2022-11-21T18:09:26.924Z,4.47
2022-11-21T18:11:55.109Z,4.30
2022-11-21T18:14:23.100Z,6.90
2022-11-21T18:16:56.091Z,5.53
2022-11-21T18:19:26.380Z,10.13
2022-11-21T18:21:54.816Z,9.68
2022-11-21T18:24:22.777Z,7.63
2022-11-21T18:26:50.924Z,13.05
2022-11-21T18:32:07.515Z,10.63
2022-11-21T18:34:38.007Z,7.80
2022-11-21T18:39:44.599Z,7.72
2022-11-21T18:42:48.081Z,10.63
2022-11-21T18:45:16.284Z,11.68
2022-11-21T18:47:49.922Z,11.07
2022-11-21T18:50:18.049Z,11.00
2022-11-21T18:52:46.944Z,15.35
2022-11-21T18:55:15.673Z,11.07
2022-11-21T18:57:43.473Z,8.88
2022-11-21T19:00:12.353Z,6.70
2022-11-21T19:02:48.553Z,14.55
2022-11-21T19:05:20.384Z,9.55
2022-11-21T19:07:48.902Z,14.10
2022-11-21T19:10:41.560Z,15.43
2022-11-21T19:13:05.842Z,19.88
2022-11-21T19:15:38.664Z,16.50
2022-11-21T19:18:06.753Z,15.13
2022-11-21T19:20:39.015Z,23.92
2022-11-21T19:23:26.270Z,12.52
2022-11-21T19:26:00.067Z,11.63
2022-11-21T19:28:29.338Z,16.25
2022-11-21T19:30:58.393Z,15.55
2022-11-21T19:33:28.220Z,19.88
2022-11-21T19:36:04.151Z,19.73
2022-11-21T19:38:32.255Z,12.50
2022-11-21T19:41:15.891Z,13.98
2022-11-21T19:43:45.224Z,16.23
2022-11-21T19:46:18.839Z,18.17
2022-11-21T19:48:51.784Z,14.35
2022-11-21T19:51:21.374Z,11.63
2022-11-21T19:53:49.698Z,12.48
2022-11-21T19:56:20.052Z,15.07
2022-11-21T19:58:49.196Z,16.20
2022-11-21T20:01:19.553Z,19.77
2022-11-21T20:03:52.846Z,19.65
2022-11-21T20:06:28.243Z,17.08
2022-11-21T20:09:06.985Z,15.43
2022-11-21T20:11:35.637Z,13.32
2022-11-21T20:14:03.943Z,19.98
2022-11-21T20:16:54.397Z,20.20
2022-11-21T20:19:25.328Z,18.15
2022-11-21T20:21:53.248Z,16.17
2022-11-21T20:24:21.581Z,16.52
2022-11-21T20:26:49.567Z,18.17
2022-11-21T20:29:17.390Z,19.65
2022-11-21T20:31:45.216Z,17.77
2022-11-21T20:34:14.042Z,13.73
2022-11-21T20:36:42.831Z,20.17
2022-11-21T20:39:17.347Z,13.95
2022-11-21T20:41:46.389Z,15.02
2022-11-21T20:47:07.863Z,15.77
2022-11-21T20:49:35.842Z,17.13
2022-11-21T20:54:51.234Z,12.43
2022-11-21T20:57:18.911Z,16.10
2022-11-21T20:59:46.619Z,13.63
2022-11-21T21:02:15.010Z,17.42
2022-11-21T21:04:42.843Z,17.50
2022-11-21T21:07:10.728Z,16.45
2022-11-21T21:09:38.893Z,12.25
2022-11-21T21:12:06.766Z,15.70
2022-11-21T21:14:35.220Z,10.32
2022-11-21T21:17:03.117Z,12.52
2022-11-21T21:19:33.907Z,11.48
2022-11-21T21:22:01.599Z,10.60
2022-11-21T21:24:32.599Z,14.55
2022-11-21T21:27:00.575Z,10.60
2022-11-21T21:29:29.643Z,14.98
2022-11-21T21:31:57.684Z,9.98
2022-11-21T21:34:26.237Z,15.43
2022-11-21T21:36:57.170Z,21.17
2022-11-21T21:39:25.609Z,13.95
2022-11-21T21:41:53.752Z,17.00
2022-11-21T21:44:25.929Z,13.82
2022-11-21T21:46:56.657Z,14.00
2022-11-21T21:49:25.018Z,14.35
2022-11-21T21:51:53.471Z,18.67
2022-11-21T21:54:24.255Z,8.18
2022-11-21T21:59:19.960Z,12.63
2022-11-21T22:01:48.050Z,13.82
2022-11-21T22:04:16.158Z,21.15
2022-11-21T22:06:45.209Z,7.68
2022-11-21T22:09:13.030Z,6.45
2022-11-21T22:11:40.944Z,12.10
2022-11-21T22:14:13.448Z,10.23
2022-11-21T22:16:54.808Z,10.45
2022-11-21T22:19:23.578Z,9.57
2022-11-21T22:21:51.559Z,9.70
2022-11-21T22:24:27.481Z,16.65
2022-11-21T22:26:57.430Z,13.95
2022-11-21T22:29:25.645Z,11.82
2022-11-21T22:32:04.989Z,11.27
2022-11-21T22:34:33.197Z,21.40
2022-11-21T22:37:01.244Z,13.95
2022-11-21T22:39:28.994Z,18.40
2022-11-21T22:41:59.802Z,7.75
2022-11-21T22:44:27.867Z,18.00
2022-11-21T22:46:55.789Z,9.68
2022-11-21T22:49:23.932Z,10.30
2022-11-21T22:51:51.607Z,14.18
2022-11-21T22:54:19.259Z,10.00
2022-11-21T22:56:46.931Z,9.85
2022-11-21T22:59:15.075Z,11.20
2022-11-21T23:01:45.066Z,12.77
2022-11-21T23:04:17.430Z,15.57
2022-11-21T23:06:45.568Z,13.00
2022-11-21T23:09:13.418Z,6.60
2022-11-21T23:11:41.294Z,11.82
2022-11-21T23:14:09.258Z,15.45
2022-11-21T23:16:37.014Z,7.93
2022-11-21T23:19:04.728Z,11.15
2022-11-21T23:21:35.464Z,10.00
2022-11-21T23:24:03.182Z,8.30
2022-11-21T23:26:30.950Z,14.60
2022-11-21T23:29:01.309Z,9.60
2022-11-21T23:31:33.654Z,11.73
2022-11-21T23:34:01.580Z,13.13
2022-11-21T23:36:29.229Z,9.13
2022-11-21T23:38:56.875Z,9.02
2022-11-21T23:41:24.683Z,9.18
2022-11-21T23:43:52.342Z,14.65
2022-11-21T23:46:21.042Z,11.50
2022-11-21T23:48:49.687Z,9.60
2022-11-21T23:51:17.435Z,8.05
2022-11-21T23:53:53.187Z,8.43
2022-11-21T23:56:25.018Z,11.55
2022-11-21T23:58:55.462Z,13.48
